Logo AVAMET
Benvolgut visitant, si us plau, ingressa Recuperar contrasenya

Pego CEIP Carolina Sala

Dades diàries. Acumulats / Últims 30 dies disponibles

Data Temperatura (°C) Humitat rel. (%) Pressió rel. (hPa) Vent (km/h) Precipitació
Mínima Mitjana Màxima Amplitud
tèrmica
Mínima Mitjana Màxima Mínima Mitjana Màxima Predom. Mitjana Ràfega
màxima
Total
(mm)
Índex-n
Mínima Mitjana Màxima Mínima Mitjana Màxima n
0 a 1
P0 max
mm 5'
Dades mensuals acumulades fins l'últim dia disponible
02/2019 6,2 9,6 11,7 13,6 12,9 17,7 21,7 15,5 21 53 85 991 1.020 1.034   5,3 64,4 0,0
Dades anuals acumulades fins l'últim dia disponible
2019 3,9 9,6 14,7 13,1 10,9 16,8 21,7 17,8 21 52 87 991 1.017 1.034   5,6 64,4 3,8
Últims 30 dies disponibles
14-02-2019 9,3     11,7     14,2 4,9 57 70 80 1.030 1.032 1.034 ESE 2,3 20,9 0,0
13-02-2019 8,2     11,6     16,7 8,5 53 67 76 1.029 1.030 1.032 S 2,9 17,7 0,0
12-02-2019 8,2     12,7     14,7 6,5 52 67 78 1.029 1.031 1.032 SE 3,2 22,5 0,0
11-02-2019 10,1     14,2     16,6 6,5 52 64 76 1.020 1.024 1.029 S 6,2 40,2 0,0
10-02-2019 10,7     15,9     20,1 9,4 28 46 79 1.017 1.019 1.021 OSO 5,5 41,8 0,0
09-02-2019 11,4     16,0     20,3 8,9 33 51 82 1.019 1.019 1.021 S 3,6 24,1 0,0
08-02-2019 9,7     14,2     20,5 10,8 48 67 83 1.017 1.020 1.023 S 1,5 12,9 0,0
07-02-2019 11,1     15,4     21,7 10,6 35 58 85 1.018 1.019 1.022 SSE 1,9 17,7 0,0
06-02-2019 11,2     15,4     21,7 10,5 42 55 82 1.019 1.022 1.024 S 2,1 12,9 0,0
05-02-2019 9,5     14,5     20,0 10,5 34 43 54 1.023 1.024 1.026 SSO 2,8 20,9 0,0
04-02-2019 6,2     10,6     15,4 9,2 21 36 45 1.024 1.025 1.026 SO 3,1 17,7 0,0
03-02-2019 7,7     9,8     12,9 5,2 22 33 44 1.012 1.018 1.024 O 11,8 49,9 0,0
02-02-2019 9,4     11,9     14,7 5,3 25 39 49 995 1.002 1.012 ONO 15,9 57,9 0,0
01-02-2019 11,7     16,7     18,9 7,2 30 46 67 991 993 999 OSO 11,0 64,4 0,0
31-01-2019 14,7     17,7     20,6 5,9 41 50 56 998 1.001 1.006 O 12,1 57,9 0,0
30-01-2019 11,7     14,4     16,9 5,2 30 44 55 1.006 1.008 1.010 O 7,4 48,3 0,0
29-01-2019 11,3     14,4     16,6 5,3 42 46 52 1.006 1.010 1.013 O 9,6 46,7 0,0
28-01-2019 11,5     14,9     18,1 6,6 32 37 44 1.009 1.012 1.014 ONO 12,7 49,9 0,0
27-01-2019 13,6     16,5     18,3 4,7 29 38 49 1.007 1.010 1.013 OSO 9,5 51,5 0,0
26-01-2019 11,1     15,0     20,0 8,9 28 50 59 1.012 1.015 1.018 SSO 3,6 17,7 0,0
25-01-2019 12,5     15,9     20,3 7,8 38 48 55 1.010 1.012 1.015 ONO 7,3 32,2 0,0
24-01-2019 11,1     14,1     17,2 6,1 38 49 64 1.000 1.005 1.011 SSO 10,8 48,3 0,0
23-01-2019 10,8     14,8     17,8 7,0 42 50 59 999 1.002 1.008 ONO 15,2 54,7 0,0
22-01-2019 6,1     9,7     13,4 7,3 40 50 66 1.008 1.013 1.018 O 7,7 41,8 0,0
21-01-2019 6,9     10,4     14,7 7,8 40 60 87 1.014 1.016 1.018 O 3,4 19,3 2,6 0,60
20-01-2019 10,3     11,5     15,1 4,8 54 76 84 1.005 1.008 1.014 SSE 2,4 29,0 1,2
19-01-2019 8,2     11,4     15,3 7,1 40 50 63 1.009 1.013 1.016 SO 4,0 32,2 0,0
18-01-2019 7,6     10,7     13,2 5,6 39 64 75 1.015 1.016 1.018 SO 3,2 22,5 0,0
17-01-2019 9,7     11,8     14,5 4,8 52 63 73 1.014 1.015 1.017 SSO 2,7 17,7 0,0
16-01-2019 8,5     12,3     18,1 9,6 54 70 84 1.014 1.016 1.019 SO 2,7 11,3 0,0
Últims 13 mesos disponibles
02/2019 6,2 9,6 11,7 13,6 12,9 17,7 21,7 15,5 33 53 70 993 1.020 1.032 S 5,3 64,4 0,0
01/2019 3,9 9,6 14,7 12,8 10,9 16,3 21,0 17,1 37 52 76 1.001 1.015 1.028 SO 5,8 57,9 3,8
12/2018 8,3 11,4 15,3 14,6 13,1 19,1 24,8 16,5 45 63 87 1.007 1.023 1.029 SSO 3,2 49,9 42,0
11/2018 10,7 13,2 16,2 15,6 14,6 18,8 23,0 12,3 40 66 92 999 1.013 1.021 SO 3,8 53,1 151,7
10/2018 9,3 16,6 20,4 19,4 14,8 23,4 29,8 20,5 40 67 89 998 1.012 1.023 3,9 51,5 78,4
09/2018 17,5 21,7 24,6 24,7 24,3 28,7 33,9 16,4 51 73 85 1.010 1.017 1.026 3,0 43,5 56,0
08/2018 21,6 23,8 25,4 27,1 26,4 31,3 36,4 14,8 46 68 84 1.010 1.014 1.019 3,5 43,5 76,6
07/2018 22,2 23,8 26,5 28,0 26,7 33,0 38,2 16,0 32 61 83 1.007 1.012 1.017 4,5 48,3 1,0
06/2018 16,2 20,4 23,1 24,4 22,2 29,1 35,0 18,8 43 60 77 1.007 1.012 1.016 4,4 38,6 26,6
05/2018 10,7 16,1 19,4 20,0 16,9 24,3 29,7 19,0 41 61 80 1.007 1.012 1.015 4,4 40,2 7,2
04/2018 9,8 13,0 15,7 16,5 14,7 20,5 26,9 17,1 33 57 84 995 1.011 1.023 5,8 64,8 12,3
03/2018 5,6 11,9 18,2 15,6 13,3 19,9 28,8 23,2 32 48 81 991 1.006 1.020 7,4 80,4 10,8
02/2018 4,3 7,9 13,9 10,6 8,1 14,0 24,0 19,7 43 66 91 1.000 1.012 1.021 3,8 53,7 104,9
Tots els anys disponibles
2018 4,3 15,8 26,5 19,1 8,1 23,2 38,2 33,9 32 63 92 991 1.014 1.032 S 4,5 80,4 635,5
2017 0,9 15,8 26,4 19,4 8,8 23,7 39,4 38,5 34 57 91 996 1.020 1.034 ESE 4,4 72,4 689,4
2016 5,6 16,1 26,6 19,5 12,1 23,7 42,4 36,8 4,7 74,0 558,8
2015 6,4 11,8 15,6 14,7 11,7 18,6 27,5 21,1 W 3,5 51,5
Temperatura (°C)
Humitat relativa (%)
Velocitat del vent i ràfega màxima (km/h)
Direcció del vent (°)
Pressió (hPa)
Precipitació (mm)
Nota sobre les dades: s'avisa a l'usuari de la provisionalitat i no oficialitat d'aquestes dades
Logo AVAMET blanc
Web allotjada a Sollutia
Llicència de Creative CommonsLa web d'AVAMET i els seus continguts estan subjectes a una llicència de
Reconeixement - No Comercial - Compartir igual
Últimes estacions: Villena - Villa Ventín (Soci), Benissa - Convent (Soci), Xàbia Fontanella (Soci), Castielfabib (Soci), Sant Mateu (Soci), Vallada (Soci), Agullent (Soci), - - -